createdAt,value
2019-03-08T00:02:21.807Z,11.30
2019-03-08T00:04:50.558Z,11.30
2019-03-08T00:07:19.048Z,11.20
2019-03-08T00:09:47.545Z,11.30
2019-03-08T00:12:16.194Z,11.30
2019-03-08T00:14:44.790Z,11.30
2019-03-08T00:17:13.352Z,11.30
2019-03-08T00:19:41.941Z,11.30
2019-03-08T00:22:10.511Z,11.30
2019-03-08T00:24:39.008Z,11.30
2019-03-08T00:27:07.487Z,11.20
2019-03-08T00:29:36.061Z,11.20
2019-03-08T00:32:04.606Z,11.10
2019-03-08T00:34:33.164Z,11.20
2019-03-08T00:37:01.641Z,11.20
2019-03-08T00:39:30.123Z,11.10
2019-03-08T00:41:58.693Z,11.10
2019-03-08T00:44:27.221Z,11.10
2019-03-08T00:46:55.702Z,11.10
2019-03-08T00:49:24.171Z,11.20
2019-03-08T00:51:52.704Z,11.20
2019-03-08T00:54:21.166Z,11.20
2019-03-08T00:56:49.682Z,11.20
2019-03-08T00:59:18.215Z,11.10
2019-03-08T01:01:46.789Z,11.10
2019-03-08T01:04:15.282Z,10.90
2019-03-08T01:06:43.820Z,10.90
2019-03-08T01:09:12.296Z,10.90
2019-03-08T01:11:40.763Z,10.70
2019-03-08T01:14:09.261Z,10.70
2019-03-08T01:16:37.743Z,10.70
2019-03-08T01:19:06.253Z,10.70
2019-03-08T01:21:34.726Z,10.60
2019-03-08T01:24:03.238Z,10.60
2019-03-08T01:26:31.791Z,10.60
2019-03-08T01:29:00.303Z,10.60
2019-03-08T01:31:28.779Z,10.60
2019-03-08T01:33:57.322Z,10.70
2019-03-08T01:36:25.813Z,10.70
2019-03-08T01:38:54.291Z,10.60
2019-03-08T01:41:22.772Z,10.50
2019-03-08T01:43:51.254Z,10.50
2019-03-08T01:46:19.740Z,10.50
2019-03-08T01:48:48.233Z,10.50
2019-03-08T01:51:16.726Z,10.50
2019-03-08T01:53:45.202Z,10.50
2019-03-08T01:56:13.735Z,10.40
2019-03-08T01:58:42.195Z,10.30
2019-03-08T02:01:10.695Z,10.20
2019-03-08T02:03:39.184Z,10.20
2019-03-08T02:06:07.654Z,10.10
2019-03-08T02:08:36.176Z,10.20
2019-03-08T02:11:04.644Z,10.10
2019-03-08T02:13:33.144Z,10.20
2019-03-08T02:16:01.607Z,10.10
2019-03-08T02:18:30.144Z,10.10
2019-03-08T02:21:06.410Z,10.10
2019-03-08T02:23:28.771Z,10.10
2019-03-08T02:25:57.254Z,10.20
2019-03-08T02:28:25.772Z,10.00
2019-03-08T02:30:54.229Z,9.80
2019-03-08T02:33:22.718Z,9.70
2019-03-08T02:35:51.234Z,9.60
2019-03-08T02:38:19.699Z,9.70
2019-03-08T02:40:48.188Z,9.80
2019-03-08T02:43:17.793Z,9.80
2019-03-08T02:45:46.299Z,9.70
2019-03-08T02:48:14.778Z,9.70
2019-03-08T02:50:43.297Z,9.80
2019-03-08T02:53:11.760Z,9.80
2019-03-08T02:55:40.255Z,9.80
2019-03-08T02:58:08.730Z,9.70
2019-03-08T03:00:43.395Z,9.70
2019-03-08T03:03:12.113Z,9.60
2019-03-08T03:05:40.599Z,9.60
2019-03-08T03:08:09.171Z,9.60
2019-03-08T03:10:37.634Z,9.60
2019-03-08T03:13:06.119Z,9.60
2019-03-08T03:15:34.678Z,9.60
2019-03-08T03:18:03.163Z,9.60
2019-03-08T03:20:31.650Z,9.70
2019-03-08T03:23:00.135Z,9.60
2019-03-08T03:25:28.650Z,9.50
2019-03-08T03:27:57.129Z,9.50
2019-03-08T03:30:25.609Z,9.40
2019-03-08T03:32:54.098Z,9.40
2019-03-08T03:35:22.560Z,9.50
2019-03-08T03:37:51.161Z,9.40
2019-03-08T03:40:19.872Z,9.50
2019-03-08T03:42:48.373Z,9.50
2019-03-08T03:45:19.051Z,9.50
2019-03-08T03:47:47.569Z,9.60
2019-03-08T03:50:16.038Z,9.60
2019-03-08T03:52:44.545Z,9.60
2019-03-08T03:55:15.165Z,9.70
2019-03-08T03:57:43.632Z,9.70
2019-03-08T04:00:23.163Z,9.60
2019-03-08T04:02:51.652Z,9.70
2019-03-08T04:05:20.142Z,9.70
2019-03-08T04:07:48.595Z,9.60
2019-03-08T04:10:17.577Z,9.50
2019-03-08T04:12:46.023Z,9.50
2019-03-08T04:15:18.791Z,9.40
2019-03-08T04:17:47.591Z,9.40
2019-03-08T04:20:19.811Z,9.40
2019-03-08T04:22:48.356Z,9.40
2019-03-08T04:25:16.834Z,9.40
2019-03-08T04:27:45.353Z,9.40
2019-03-08T04:30:18.982Z,9.50
2019-03-08T04:32:47.449Z,9.50
2019-03-08T04:35:15.933Z,9.50
2019-03-08T04:37:44.414Z,9.50
2019-03-08T04:40:16.058Z,9.50
2019-03-08T04:42:44.530Z,9.50
2019-03-08T04:45:17.800Z,9.50
2019-03-08T04:47:46.282Z,9.50
2019-03-08T04:50:18.495Z,9.50
2019-03-08T04:52:46.962Z,9.40
2019-03-08T04:55:17.837Z,9.40
2019-03-08T04:57:46.911Z,9.50
2019-03-08T05:00:16.437Z,9.40
2019-03-08T05:02:44.909Z,9.50
2019-03-08T05:05:13.476Z,9.40
2019-03-08T05:07:41.988Z,9.40
2019-03-08T05:10:14.958Z,9.40
2019-03-08T05:12:43.561Z,9.30
2019-03-08T05:15:12.027Z,9.30
2019-03-08T05:17:40.505Z,9.30
2019-03-08T05:20:10.061Z,9.20
2019-03-08T05:22:38.543Z,9.10
2019-03-08T05:25:14.168Z,9.10
2019-03-08T05:27:42.640Z,9.10
2019-03-08T05:30:15.372Z,9.10
2019-03-08T05:32:43.849Z,9.10
2019-03-08T05:35:12.810Z,9.10
2019-03-08T05:37:41.298Z,9.20
2019-03-08T05:40:12.067Z,9.20
2019-03-08T05:42:40.539Z,9.20
2019-03-08T05:45:12.976Z,9.00
2019-03-08T05:47:41.448Z,9.00
2019-03-08T05:50:11.954Z,9.00
2019-03-08T05:52:40.818Z,9.00
2019-03-08T05:55:12.684Z,9.00
2019-03-08T05:57:41.186Z,9.00
2019-03-08T06:00:13.943Z,9.00
2019-03-08T06:02:42.431Z,9.00
2019-03-08T06:05:10.904Z,9.00
2019-03-08T06:07:39.590Z,9.00
2019-03-08T06:10:37.916Z,9.00
2019-03-08T06:13:07.357Z,9.00
2019-03-08T06:15:35.846Z,8.80
2019-03-08T06:18:04.406Z,8.80
2019-03-08T06:20:32.877Z,8.70
2019-03-08T06:23:01.368Z,8.90
2019-03-08T06:25:29.840Z,8.90
2019-03-08T06:27:58.346Z,9.00
2019-03-08T06:30:26.802Z,9.10
2019-03-08T06:32:55.312Z,9.20
2019-03-08T06:35:23.803Z,9.20
2019-03-08T06:37:52.320Z,9.30
2019-03-08T06:40:20.806Z,9.40
2019-03-08T06:42:49.279Z,9.50
2019-03-08T06:45:18.452Z,9.60
2019-03-08T06:47:47.225Z,9.60
2019-03-08T06:50:16.011Z,9.80
2019-03-08T06:52:44.491Z,9.90
2019-03-08T06:55:14.135Z,9.90
2019-03-08T06:57:42.628Z,10.00
2019-03-08T07:00:16.000Z,10.10
2019-03-08T07:02:44.490Z,10.30
2019-03-08T07:05:12.974Z,10.50
2019-03-08T07:07:41.470Z,10.60
2019-03-08T07:10:09.939Z,10.70
2019-03-08T07:12:38.438Z,10.80
2019-03-08T07:15:07.206Z,10.90
2019-03-08T07:17:35.982Z,11.00
2019-03-08T07:20:06.947Z,11.20
2019-03-08T07:22:53.022Z,11.20
2019-03-08T07:25:39.307Z,11.40
2019-03-08T07:28:25.369Z,11.50
2019-03-08T07:31:04.143Z,11.70
2019-03-08T07:33:52.550Z,11.90
2019-03-08T07:36:14.951Z,12.00
2019-03-08T07:38:50.883Z,12.10
2019-03-08T07:41:28.229Z,12.20
2019-03-08T07:44:01.441Z,12.30
2019-03-08T07:46:31.574Z,12.30
2019-03-08T07:49:13.475Z,12.30
2019-03-08T07:51:52.622Z,12.40
2019-03-08T07:54:25.484Z,12.50
2019-03-08T07:57:20.265Z,12.60
2019-03-08T07:59:53.994Z,12.60
2019-03-08T08:02:29.324Z,12.70
2019-03-08T08:04:59.460Z,12.80
2019-03-08T08:07:29.592Z,13.00
2019-03-08T08:10:02.438Z,13.10
2019-03-08T08:12:32.551Z,13.20
2019-03-08T08:15:02.707Z,13.30
2019-03-08T08:17:33.283Z,13.50
2019-03-08T08:20:16.311Z,13.60
2019-03-08T08:22:56.315Z,13.60
2019-03-08T08:25:26.452Z,13.70
2019-03-08T08:28:08.484Z,13.80
2019-03-08T08:30:41.589Z,13.90
2019-03-08T08:33:11.711Z,14.00
2019-03-08T08:35:59.622Z,14.10
2019-03-08T08:38:29.755Z,14.20
2019-03-08T08:41:05.644Z,14.20
2019-03-08T08:43:38.439Z,14.20
2019-03-08T08:46:14.485Z,14.30
2019-03-08T08:49:00.766Z,14.40
2019-03-08T08:51:39.831Z,14.50
2019-03-08T08:54:24.885Z,14.80
2019-03-08T08:57:03.735Z,15.00
2019-03-08T08:59:33.842Z,15.10
2019-03-08T09:02:03.977Z,15.30
2019-03-08T09:04:34.098Z,15.40
2019-03-08T09:07:06.962Z,15.60
2019-03-08T09:09:39.695Z,15.80
2019-03-08T09:12:18.824Z,16.00
2019-03-08T09:14:51.839Z,16.10
2019-03-08T09:17:24.650Z,16.30
2019-03-08T09:20:00.433Z,16.60
2019-03-08T09:22:36.369Z,17.10
2019-03-08T09:25:20.939Z,17.60
2019-03-08T09:27:51.284Z,17.80
2019-03-08T09:30:30.401Z,18.10
2019-03-08T09:33:16.733Z,18.20
2019-03-08T09:35:58.655Z,18.60
2019-03-08T09:38:31.542Z,18.50
2019-03-08T09:41:19.662Z,18.90
2019-03-08T09:43:50.142Z,18.60
2019-03-08T09:46:23.012Z,18.90
2019-03-08T09:48:59.043Z,18.90
2019-03-08T09:51:35.007Z,19.40
2019-03-08T09:54:07.876Z,19.60
2019-03-08T09:56:40.691Z,20.20
2019-03-08T09:59:27.383Z,20.40
2019-03-08T10:02:08.988Z,20.30
2019-03-08T10:04:53.953Z,20.20
2019-03-08T10:07:24.081Z,20.30
2019-03-08T10:09:54.274Z,21.10
2019-03-08T10:12:24.721Z,21.50
2019-03-08T10:15:03.909Z,21.40
2019-03-08T10:17:36.808Z,21.70
2019-03-08T10:20:24.320Z,21.70
2019-03-08T10:22:54.446Z,21.50
2019-03-08T10:25:30.343Z,21.40
2019-03-08T10:28:03.324Z,21.40
2019-03-08T10:30:36.254Z,21.10
2019-03-08T10:33:12.255Z,21.20
2019-03-08T10:35:42.439Z,21.10
2019-03-08T10:38:12.562Z,21.10
2019-03-08T10:41:00.777Z,21.80
2019-03-08T10:43:33.602Z,22.10
2019-03-08T10:46:19.812Z,22.30
2019-03-08T10:48:55.984Z,21.80
2019-03-08T10:51:35.606Z,21.50
2019-03-08T10:54:11.401Z,22.40
2019-03-08T10:56:41.542Z,21.70
2019-03-08T10:59:17.414Z,22.30
2019-03-08T11:01:50.285Z,22.80
2019-03-08T11:04:35.219Z,22.60
2019-03-08T11:07:05.436Z,21.50
2019-03-08T11:09:35.779Z,20.90
2019-03-08T11:12:11.615Z,20.10
2019-03-08T11:14:41.751Z,19.80
2019-03-08T11:17:20.793Z,19.80
2019-03-08T11:19:54.152Z,19.40
2019-03-08T11:22:24.492Z,19.30
2019-03-08T11:25:08.097Z,19.40
2019-03-08T11:27:47.645Z,20.20
2019-03-08T11:30:34.025Z,21.00
2019-03-08T11:33:04.256Z,21.40
2019-03-08T11:35:40.103Z,21.40
2019-03-08T11:38:10.221Z,21.70
2019-03-08T11:40:56.299Z,22.70
2019-03-08T11:43:29.151Z,23.00
2019-03-08T11:46:17.146Z,23.00
2019-03-08T11:49:05.290Z,23.40
2019-03-08T11:51:51.554Z,23.30
2019-03-08T11:54:24.329Z,22.30
2019-03-08T11:56:57.150Z,21.00
2019-03-08T11:59:30.062Z,20.80
2019-03-08T12:02:00.175Z,21.40
2019-03-08T12:04:33.001Z,21.60
2019-03-08T12:07:08.752Z,21.90
2019-03-08T12:09:38.888Z,22.10
2019-03-08T12:12:14.699Z,21.90
2019-03-08T12:14:47.579Z,21.60
2019-03-08T12:17:32.603Z,21.60
2019-03-08T12:20:02.731Z,21.50
2019-03-08T12:22:44.671Z,21.30
2019-03-08T12:25:20.635Z,21.70
2019-03-08T12:28:06.840Z,22.00
2019-03-08T12:30:37.300Z,22.30
2019-03-08T12:33:13.266Z,21.70
2019-03-08T12:35:43.394Z,21.30
2019-03-08T12:38:13.507Z,21.50
2019-03-08T12:40:43.643Z,21.80
2019-03-08T12:43:29.631Z,21.60
2019-03-08T12:46:02.521Z,21.60
2019-03-08T12:48:35.307Z,21.50
2019-03-08T12:51:05.483Z,21.40
2019-03-08T12:53:35.607Z,21.40
2019-03-08T12:56:08.576Z,21.70
2019-03-08T12:58:56.476Z,21.90
2019-03-08T13:01:35.330Z,22.30
2019-03-08T13:04:05.460Z,22.30
2019-03-08T13:06:51.684Z,22.10
2019-03-08T13:09:40.008Z,22.40
2019-03-08T13:12:08.496Z,22.10
2019-03-08T13:14:36.966Z,22.40
2019-03-08T13:17:05.460Z,22.30
2019-03-08T13:19:34.333Z,22.20
2019-03-08T13:22:02.812Z,22.30
2019-03-08T13:24:31.350Z,22.40
2019-03-08T13:26:59.817Z,22.80
2019-03-08T13:29:28.302Z,23.10
2019-03-08T13:31:56.802Z,23.60
2019-03-08T13:34:25.304Z,23.50
2019-03-08T13:36:53.778Z,24.00
2019-03-08T13:39:22.253Z,23.50
2019-03-08T13:41:50.821Z,23.60
2019-03-08T13:44:19.443Z,23.10
2019-03-08T13:46:47.911Z,23.20
2019-03-08T13:49:16.388Z,23.30
2019-03-08T13:51:45.024Z,23.60
2019-03-08T13:54:13.493Z,23.50
2019-03-08T13:56:41.982Z,23.80
2019-03-08T13:59:10.481Z,24.30
2019-03-08T14:01:38.956Z,24.60
2019-03-08T14:04:07.453Z,24.20
2019-03-08T14:06:35.931Z,24.20
2019-03-08T14:09:05.610Z,24.50
2019-03-08T14:11:34.089Z,24.50
2019-03-08T14:14:02.599Z,24.30
2019-03-08T14:16:31.067Z,24.20
2019-03-08T14:18:59.574Z,24.00
2019-03-08T14:21:28.046Z,24.20
2019-03-08T14:23:56.550Z,24.30
2019-03-08T14:26:25.112Z,24.20
2019-03-08T14:28:53.618Z,24.60
2019-03-08T14:31:29.587Z,25.00
2019-03-08T14:33:58.069Z,24.70
2019-03-08T14:36:26.586Z,24.50
2019-03-08T14:38:55.259Z,24.30
2019-03-08T14:41:37.129Z,24.30
2019-03-08T14:44:09.920Z,23.70
2019-03-08T14:46:45.775Z,23.70
2019-03-08T14:49:14.257Z,23.90
2019-03-08T14:51:44.701Z,23.90
2019-03-08T14:54:12.867Z,23.50
2019-03-08T14:56:41.566Z,24.40
2019-03-08T14:59:11.280Z,24.20
2019-03-08T15:01:41.248Z,24.40
2019-03-08T15:04:09.852Z,25.00
2019-03-08T15:06:38.329Z,25.30
2019-03-08T15:09:10.780Z,25.30
2019-03-08T15:11:39.280Z,25.50
2019-03-08T15:14:07.776Z,25.20
2019-03-08T15:16:39.106Z,25.20
2019-03-08T15:19:06.413Z,24.80
2019-03-08T15:21:37.073Z,24.80
2019-03-08T15:24:05.111Z,24.90
2019-03-08T15:26:33.619Z,24.30
2019-03-08T15:29:02.096Z,24.40
2019-03-08T15:31:30.608Z,24.10
2019-03-08T15:33:59.234Z,24.70
2019-03-08T15:36:28.024Z,24.70
2019-03-08T15:38:58.834Z,24.60
2019-03-08T15:41:26.796Z,25.00
2019-03-08T15:43:55.355Z,24.90
2019-03-08T15:46:23.841Z,24.40
2019-03-08T15:48:53.498Z,24.60
2019-03-08T15:51:25.419Z,24.50
2019-03-08T15:53:54.373Z,24.20
2019-03-08T15:56:23.073Z,23.60
2019-03-08T15:58:51.555Z,22.80
2019-03-08T16:01:20.035Z,21.90
2019-03-08T16:03:48.529Z,21.70
2019-03-08T16:06:19.686Z,21.20
2019-03-08T16:08:49.691Z,21.00
2019-03-08T16:11:18.315Z,20.50
2019-03-08T16:13:46.814Z,20.00
2019-03-08T16:16:15.300Z,19.80
2019-03-08T16:18:46.901Z,19.50
2019-03-08T16:21:14.388Z,19.40
2019-03-08T16:23:43.200Z,19.20
2019-03-08T16:26:11.699Z,19.20
2019-03-08T16:28:40.182Z,19.00
2019-03-08T16:31:12.934Z,18.80
2019-03-08T16:33:43.025Z,18.60
2019-03-08T16:36:31.251Z,18.50
2019-03-08T16:39:03.992Z,18.50
2019-03-08T16:41:37.068Z,18.50
2019-03-08T16:44:07.320Z,18.40
2019-03-08T16:46:40.194Z,18.30
2019-03-08T16:49:30.790Z,18.10
2019-03-08T16:52:06.655Z,18.00
2019-03-08T16:54:36.974Z,17.90
2019-03-08T16:57:07.146Z,17.90
2019-03-08T16:59:54.835Z,17.80
2019-03-08T17:02:41.043Z,17.80
2019-03-08T17:05:27.172Z,17.80
2019-03-08T17:07:57.345Z,17.80
2019-03-08T17:10:30.067Z,17.70
2019-03-08T17:13:19.414Z,17.70
2019-03-08T17:15:50.016Z,17.50
2019-03-08T17:18:29.177Z,17.50
2019-03-08T17:21:02.084Z,17.40
2019-03-08T17:23:35.136Z,17.30
2019-03-08T17:26:08.091Z,17.20
2019-03-08T17:28:39.058Z,17.10
2019-03-08T17:31:18.131Z,17.00
2019-03-08T17:33:48.302Z,17.00
2019-03-08T17:36:21.137Z,16.90
2019-03-08T17:39:00.145Z,16.80
2019-03-08T17:41:36.027Z,16.80
2019-03-08T17:44:22.127Z,16.80
2019-03-08T17:47:08.394Z,16.70
2019-03-08T17:49:38.622Z,16.50
2019-03-08T17:52:23.782Z,16.50
2019-03-08T17:55:05.404Z,16.50
2019-03-08T17:57:35.541Z,16.50
2019-03-08T18:00:11.402Z,16.50
2019-03-08T18:02:47.753Z,16.40
2019-03-08T18:05:21.400Z,16.30
2019-03-08T18:08:07.776Z,16.20
2019-03-08T18:10:53.853Z,16.10
2019-03-08T18:13:40.040Z,16.00
2019-03-08T18:16:12.503Z,15.90
2019-03-08T18:18:42.644Z,15.90
2019-03-08T18:21:27.685Z,15.90
2019-03-08T18:24:04.993Z,15.80
2019-03-08T18:26:38.027Z,15.80
2019-03-08T18:29:15.848Z,15.80
2019-03-08T18:31:51.656Z,15.70
2019-03-08T18:34:21.821Z,15.70
2019-03-08T18:36:51.941Z,15.60
2019-03-08T18:39:22.080Z,15.60
2019-03-08T18:41:52.186Z,15.60
2019-03-08T18:44:37.152Z,15.50
2019-03-08T18:47:07.260Z,15.40
2019-03-08T18:49:43.101Z,15.30
2019-03-08T18:52:13.207Z,15.10
2019-03-08T18:54:43.343Z,15.10
2019-03-08T18:57:16.168Z,15.00
2019-03-08T18:59:46.296Z,15.00
2019-03-08T19:02:22.231Z,14.90
2019-03-08T19:04:55.385Z,14.80
2019-03-08T19:07:34.297Z,14.70
2019-03-08T19:10:16.370Z,14.60
2019-03-08T19:13:02.531Z,14.50
2019-03-08T19:15:35.512Z,14.50
2019-03-08T19:18:08.473Z,14.40
2019-03-08T19:20:40.465Z,14.40
2019-03-08T19:23:10.572Z,14.30
2019-03-08T19:25:56.833Z,14.20
2019-03-08T19:28:44.924Z,14.20
2019-03-08T19:31:15.085Z,14.20
2019-03-08T19:34:05.875Z,14.10
2019-03-08T19:36:38.762Z,14.10
2019-03-08T19:39:08.979Z,14.00
2019-03-08T19:41:57.109Z,14.00
2019-03-08T19:44:27.417Z,14.10
2019-03-08T19:46:57.571Z,14.10
2019-03-08T19:49:27.779Z,14.10
2019-03-08T19:51:57.913Z,14.10
2019-03-08T19:54:33.681Z,13.90
2019-03-08T19:57:06.471Z,13.90
2019-03-08T19:59:51.359Z,13.70
2019-03-08T20:02:21.505Z,13.60
2019-03-08T20:05:03.564Z,13.60
2019-03-08T20:07:33.737Z,13.60
2019-03-08T20:10:18.745Z,13.70
2019-03-08T20:12:57.645Z,13.70
2019-03-08T20:15:33.399Z,13.70
2019-03-08T20:18:13.710Z,13.70
2019-03-08T20:20:43.922Z,13.60
2019-03-08T20:23:15.880Z,13.60
2019-03-08T20:26:03.821Z,13.60
2019-03-08T20:28:43.190Z,13.60
2019-03-08T20:31:19.007Z,13.70
2019-03-08T20:33:55.274Z,13.70
2019-03-08T20:36:25.902Z,13.70
2019-03-08T20:38:56.625Z,13.70
2019-03-08T20:41:42.894Z,13.60
2019-03-08T20:44:16.848Z,13.60
2019-03-08T20:46:52.697Z,13.60
2019-03-08T20:49:21.256Z,13.60
2019-03-08T20:51:49.749Z,13.50
2019-03-08T20:54:18.227Z,13.40
2019-03-08T20:56:46.737Z,13.30
2019-03-08T20:59:15.420Z,13.20
2019-03-08T21:01:44.869Z,13.10
2019-03-08T21:04:15.866Z,13.00
2019-03-08T21:06:44.090Z,12.90
2019-03-08T21:09:12.828Z,12.90
2019-03-08T21:11:41.892Z,12.80
2019-03-08T21:14:10.741Z,12.90
2019-03-08T21:17:05.769Z,12.90
2019-03-08T21:19:21.791Z,13.00
2019-03-08T21:21:50.587Z,13.00
2019-03-08T21:24:19.068Z,13.00
2019-03-08T21:26:47.725Z,13.00
2019-03-08T21:29:16.216Z,13.00
2019-03-08T21:31:44.784Z,12.90
2019-03-08T21:34:13.561Z,12.90
2019-03-08T21:36:45.830Z,12.80
2019-03-08T21:39:14.422Z,12.70
2019-03-08T21:41:42.895Z,12.70
2019-03-08T21:44:13.614Z,12.70
2019-03-08T21:46:44.636Z,12.60
2019-03-08T21:49:13.738Z,12.60
2019-03-08T21:51:44.076Z,12.60
2019-03-08T21:54:12.739Z,12.50
2019-03-08T21:56:41.459Z,12.50
2019-03-08T21:59:10.632Z,12.50
2019-03-08T22:01:41.084Z,12.50
2019-03-08T22:04:11.380Z,12.60
2019-03-08T22:06:40.050Z,12.60
2019-03-08T22:09:25.059Z,12.60
2019-03-08T22:11:53.592Z,12.50
2019-03-08T22:14:22.085Z,12.40
2019-03-08T22:16:51.128Z,12.50
2019-03-08T22:19:19.613Z,12.50
2019-03-08T22:21:48.171Z,12.50
2019-03-08T22:24:16.909Z,12.50
2019-03-08T22:26:45.480Z,12.30
2019-03-08T22:29:14.164Z,12.30
2019-03-08T22:31:42.749Z,12.20
2019-03-08T22:34:11.408Z,12.10
2019-03-08T22:36:40.146Z,12.10
2019-03-08T22:39:08.800Z,12.00
2019-03-08T22:41:37.382Z,12.00
2019-03-08T22:44:06.135Z,11.90
2019-03-08T22:46:34.783Z,12.00
2019-03-08T22:49:03.448Z,12.00
2019-03-08T22:51:32.106Z,12.00
2019-03-08T22:54:00.617Z,12.00
2019-03-08T22:56:29.064Z,11.90
2019-03-08T22:58:57.856Z,11.80
2019-03-08T23:01:28.226Z,11.80
2019-03-08T23:03:56.989Z,11.80
2019-03-08T23:06:25.647Z,11.70
2019-03-08T23:08:54.332Z,11.70
2019-03-08T23:11:23.154Z,11.70
2019-03-08T23:13:51.702Z,11.50
2019-03-08T23:16:20.398Z,11.40
2019-03-08T23:18:49.036Z,11.40
2019-03-08T23:21:17.481Z,11.30
2019-03-08T23:23:54.196Z,11.40
2019-03-08T23:26:22.875Z,11.40
2019-03-08T23:28:54.233Z,11.50
2019-03-08T23:31:30.961Z,11.60
2019-03-08T23:33:59.556Z,11.60
2019-03-08T23:36:28.174Z,11.70
2019-03-08T23:39:01.389Z,11.70
2019-03-08T23:41:33.312Z,11.60
2019-03-08T23:44:00.097Z,11.60
2019-03-08T23:46:31.618Z,11.40
2019-03-08T23:49:00.339Z,11.20
2019-03-08T23:51:29.004Z,11.10
2019-03-08T23:53:57.784Z,11.00
2019-03-08T23:56:26.320Z,10.90
2019-03-08T23:58:54.955Z,10.80
